Maran Castor — SXLH — position and weather

sailwx.info

Track history (hours):
 
Tides and Currents Weather Stations Pressure Air Temp Water Temp Dewpoint Dewpoint Depression Visibility Wind Speed Wind Dir Waves Ship Positions

Maran Castor

Last reported at 2017-Mar-20 10:29 UTC. Time now 2017-Apr-27 18:47 UTC.
Position N 01°58' E 102°15'.
Warning: this ship's position is 38 days out of date.

Length 332 m; draft 11.5 m.

Type: Tanker. MMSI: 239808000.

Date/timePositionNaut miles runAvg speedWind from/ knotsBaromVisibWave heightAir tempDewpointWater temp
2017-Mar-20 10:29N 01°58' E 102°15'1111.6
2017-Mar-20 09:31N 01°53' E 102°25'1211.5
2017-Mar-20 08:30N 01°49' E 102°36'1211.3
2017-Mar-20 07:29N 01°44' E 102°46'4511.1
2017-Mar-20 03:27N 01°17' E 103°22'9 9.9
2017-Mar-20 02:33N 01°13' E 103°30'10 9.9
2017-Mar-20 01:33N 01°11' E 103°40'9 8.8
2017-Mar-20 00:33N 01°11' E 103°48'7 7.2
2017-Mar-19 23:33N 01°14' E 103°55'1 0.5
2017-Mar-19 22:22N 01°15' E 103°55'0 0.1
2017-Mar-19 21:31N 01°15' E 103°55'0 0.2
2017-Mar-19 20:31N 01°15' E 103°55'0 0.1
2017-Mar-19 19:28N 01°15' E 103°54'0 0.0
2017-Mar-19 18:31N 01°15' E 103°54'0 0.0
2017-Mar-19 17:25N 01°15' E 103°54'0 0.0
2017-Mar-19 16:28N 01°15' E 103°54'0 0.0
2017-Mar-19 15:16N 01°15' E 103°54'0 0.0
2017-Mar-19 14:28N 01°15' E 103°54'0 0.0
2017-Mar-19 13:25N 01°15' E 103°54'0 0.0
2017-Mar-19 12:22N 01°15' E 103°54'0 0.0
2017-Mar-19 11:22N 01°15' E 103°54'0 0.1
2017-Mar-19 10:31N 01°15' E 103°54'0 0.0
2017-Mar-19 09:22N 01°15' E 103°54'0 0.0
2017-Mar-19 08:31N 01°15' E 103°54'0 0.0
2017-Mar-19 07:28N 01°15' E 103°54'0 0.0
2017-Mar-19 06:16N 01°15' E 103°54'0 0.0
2017-Mar-19 05:31N 01°15' E 103°54'0 0.0
2017-Mar-19 04:22N 01°15' E 103°54'0 0.2
2017-Mar-19 03:25N 01°15' E 103°55'0 0.2
2017-Mar-19 02:19N 01°15' E 103°55'0 0.1
2017-Mar-19 00:16N 01°15' E 103°55'0 0.1
2017-Mar-18 23:31N 01°15' E 103°55'0 0.0
2017-Mar-18 22:31N 01°15' E 103°55'0 0.2
2017-Mar-18 21:31N 01°15' E 103°55'0 0.2
2017-Mar-18 20:28N 01°15' E 103°54'0 0.0
2017-Mar-18 19:07N 01°15' E 103°54'0 0.0
2017-Mar-18 18:31N 01°15' E 103°54'0 0.0
2017-Mar-18 17:31N 01°15' E 103°54'0 0.0
2017-Mar-18 16:31N 01°15' E 103°54'0 0.0
2017-Mar-18 15:31N 01°15' E 103°54'0 0.0
2017-Mar-18 14:28N 01°15' E 103°54'0 0.0
2017-Mar-18 13:28N 01°15' E 103°54'0 0.0
2017-Mar-18 12:28N 01°15' E 103°54'0 0.1
2017-Mar-18 11:25N 01°15' E 103°54'0 0.0
2017-Mar-18 10:28N 01°15' E 103°54'0 0.0
2017-Mar-18 09:25N 01°15' E 103°54'0 0.0
2017-Mar-18 08:31N 01°15' E 103°54'0 0.0
2017-Mar-18 07:28N 01°15' E 103°54'0 0.0
2017-Mar-18 06:31N 01°15' E 103°54'0 0.0
2017-Mar-18 05:31N 01°15' E 103°54'1 0.6
2017-Mar-18 04:33N 01°14' E 103°54'5 5.4
2017-Mar-18 03:33N 01°16' E 103°60'5 5.1
2017-Mar-18 02:32N 01°16' E 104°05'  
2017-Mar-11 19:29N 22°50' E 119°52'  
Track history (hours):
 
Tides and Currents Weather Stations Pressure Air Temp Water Temp Dewpoint Dewpoint Depression Visibility Wind Speed Wind Dir Waves Ship Positions

Maran Castor

Last reported at 2017-Mar-20 10:29 UTC. Time now 2017-Apr-27 18:47 UTC.
Position N 01°58' E 102°15'.
Warning: this ship's position is 38 days out of date.

Length 332 m; draft 11.5 m.

Type: Tanker. MMSI: 239808000.

Date/timePositionNaut miles runAvg speedWind from/ knotsBaromVisibWave heightAir tempDewpointWater temp
2017-Mar-20 10:29N 01°58' E 102°15'1111.6
2017-Mar-20 09:31N 01°53' E 102°25'1211.5
2017-Mar-20 08:30N 01°49' E 102°36'1211.3
2017-Mar-20 07:29N 01°44' E 102°46'4511.1
2017-Mar-20 03:27N 01°17' E 103°22'9 9.9
2017-Mar-20 02:33N 01°13' E 103°30'10 9.9
2017-Mar-20 01:33N 01°11' E 103°40'9 8.8
2017-Mar-20 00:33N 01°11' E 103°48'7 7.2
2017-Mar-19 23:33N 01°14' E 103°55'1 0.5
2017-Mar-19 22:22N 01°15' E 103°55'0 0.1
2017-Mar-19 21:31N 01°15' E 103°55'0 0.2
2017-Mar-19 20:31N 01°15' E 103°55'0 0.1
2017-Mar-19 19:28N 01°15' E 103°54'0 0.0
2017-Mar-19 18:31N 01°15' E 103°54'0 0.0
2017-Mar-19 17:25N 01°15' E 103°54'0 0.0
2017-Mar-19 16:28N 01°15' E 103°54'0 0.0
2017-Mar-19 15:16N 01°15' E 103°54'0 0.0
2017-Mar-19 14:28N 01°15' E 103°54'0 0.0
2017-Mar-19 13:25N 01°15' E 103°54'0 0.0
2017-Mar-19 12:22N 01°15' E 103°54'0 0.0
2017-Mar-19 11:22N 01°15' E 103°54'0 0.1
2017-Mar-19 10:31N 01°15' E 103°54'0 0.0
2017-Mar-19 09:22N 01°15' E 103°54'0 0.0
2017-Mar-19 08:31N 01°15' E 103°54'0 0.0
2017-Mar-19 07:28N 01°15' E 103°54'0 0.0
2017-Mar-19 06:16N 01°15' E 103°54'0 0.0
2017-Mar-19 05:31N 01°15' E 103°54'0 0.0
2017-Mar-19 04:22N 01°15' E 103°54'0 0.2
2017-Mar-19 03:25N 01°15' E 103°55'0 0.2
2017-Mar-19 02:19N 01°15' E 103°55'0 0.1
2017-Mar-19 00:16N 01°15' E 103°55'0 0.1
2017-Mar-18 23:31N 01°15' E 103°55'0 0.0
2017-Mar-18 22:31N 01°15' E 103°55'0 0.2
2017-Mar-18 21:31N 01°15' E 103°55'0 0.2
2017-Mar-18 20:28N 01°15' E 103°54'0 0.0
2017-Mar-18 19:07N 01°15' E 103°54'0 0.0
2017-Mar-18 18:31N 01°15' E 103°54'0 0.0
2017-Mar-18 17:31N 01°15' E 103°54'0 0.0
2017-Mar-18 16:31N 01°15' E 103°54'0 0.0
2017-Mar-18 15:31N 01°15' E 103°54'0 0.0
2017-Mar-18 14:28N 01°15' E 103°54'0 0.0
2017-Mar-18 13:28N 01°15' E 103°54'0 0.0
2017-Mar-18 12:28N 01°15' E 103°54'0 0.1
2017-Mar-18 11:25N 01°15' E 103°54'0 0.0
2017-Mar-18 10:28N 01°15' E 103°54'0 0.0
2017-Mar-18 09:25N 01°15' E 103°54'0 0.0
2017-Mar-18 08:31N 01°15' E 103°54'0 0.0
2017-Mar-18 07:28N 01°15' E 103°54'0 0.0
2017-Mar-18 06:31N 01°15' E 103°54'0 0.0
2017-Mar-18 05:31N 01°15' E 103°54'1 0.6
2017-Mar-18 04:33N 01°14' E 103°54'5 5.4
2017-Mar-18 03:33N 01°16' E 103°60'5 5.1
2017-Mar-18 02:32N 01°16' E 104°05'  
2017-Mar-11 19:29N 22°50' E 119°52'  

Dump ship's entire track history